createdAt,value
2023-01-30T00:01:52.972Z,23.67
2023-01-30T00:04:19.349Z,23.65
2023-01-30T00:06:45.737Z,23.64
2023-01-30T00:09:15.191Z,23.55
2023-01-30T00:11:42.437Z,23.45
2023-01-30T00:14:08.759Z,23.09
2023-01-30T00:16:35.550Z,22.92
2023-01-30T00:19:01.943Z,22.88
2023-01-30T00:21:28.500Z,22.78
2023-01-30T00:23:54.806Z,22.75
2023-01-30T00:26:21.194Z,22.79
2023-01-30T00:28:47.600Z,22.78
2023-01-30T00:31:13.967Z,22.74
2023-01-30T00:33:40.323Z,22.74
2023-01-30T00:36:06.888Z,22.71
2023-01-30T00:38:33.494Z,22.70
2023-01-30T00:40:59.835Z,22.64
2023-01-30T00:43:44.537Z,22.62
2023-01-30T00:46:45.305Z,22.58
2023-01-30T00:49:11.725Z,22.54
2023-01-30T00:51:38.055Z,22.52
2023-01-30T00:54:04.405Z,22.48
2023-01-30T00:56:30.726Z,22.45
2023-01-30T00:58:57.067Z,22.42
2023-01-30T01:01:23.400Z,22.40
2023-01-30T01:03:49.705Z,22.36
2023-01-30T01:06:16.036Z,22.33
2023-01-30T01:08:42.345Z,22.29
2023-01-30T01:11:08.683Z,22.27
2023-01-30T01:13:35.022Z,22.25
2023-01-30T01:16:01.355Z,22.22
2023-01-30T01:18:27.716Z,22.20
2023-01-30T01:20:54.163Z,22.18
2023-01-30T01:23:20.540Z,22.16
2023-01-30T01:25:46.851Z,22.14
2023-01-30T01:28:13.163Z,22.11
2023-01-30T01:30:39.479Z,22.07
2023-01-30T01:33:05.793Z,22.06
2023-01-30T01:35:32.102Z,22.04
2023-01-30T01:37:58.442Z,22.00
2023-01-30T01:40:43.510Z,21.94
2023-01-30T01:43:14.712Z,21.89
2023-01-30T01:45:41.045Z,21.86
2023-01-30T01:48:12.501Z,21.83
2023-01-30T01:50:41.462Z,21.80
2023-01-30T01:53:07.987Z,21.76
2023-01-30T01:55:34.287Z,21.75
2023-01-30T01:58:03.403Z,21.72
2023-01-30T02:00:29.717Z,21.69
2023-01-30T02:02:56.899Z,21.67
2023-01-30T02:05:23.211Z,21.64
2023-01-30T02:07:54.315Z,21.66
2023-01-30T02:10:21.602Z,21.66
2023-01-30T02:12:48.048Z,21.66
2023-01-30T02:15:14.388Z,21.68
2023-01-30T02:17:41.002Z,21.67
2023-01-30T02:20:07.264Z,21.68
2023-01-30T02:22:37.445Z,21.66
2023-01-30T02:25:15.265Z,21.64
2023-01-30T02:28:00.741Z,21.62
2023-01-30T02:30:45.449Z,21.62
2023-01-30T02:33:25.300Z,21.59
2023-01-30T02:36:00.757Z,21.57
2023-01-30T02:38:33.119Z,21.52
2023-01-30T02:40:59.346Z,21.49
2023-01-30T02:43:34.114Z,21.49
2023-01-30T02:46:02.052Z,21.46
2023-01-30T02:48:39.663Z,21.44
2023-01-30T02:51:07.116Z,21.42
2023-01-30T02:53:33.807Z,21.40
2023-01-30T02:56:01.186Z,21.37
2023-01-30T02:58:29.335Z,21.35
2023-01-30T03:01:03.714Z,21.33
2023-01-30T03:03:30.055Z,21.29
2023-01-30T03:06:07.011Z,21.28
2023-01-30T03:08:42.586Z,21.25
2023-01-30T03:11:09.029Z,21.24
2023-01-30T03:13:47.704Z,21.26
2023-01-30T03:16:43.361Z,21.30
2023-01-30T03:19:10.396Z,21.30
2023-01-30T03:21:40.228Z,21.30
2023-01-30T03:24:07.027Z,21.28
2023-01-30T03:26:33.374Z,21.24
2023-01-30T03:28:59.748Z,21.23
2023-01-30T03:31:26.157Z,21.21
2023-01-30T03:33:52.544Z,21.17
2023-01-30T03:36:19.032Z,21.18
2023-01-30T03:38:45.371Z,21.24
2023-01-30T03:41:11.685Z,21.23
2023-01-30T03:43:38.039Z,21.23
2023-01-30T03:46:04.419Z,21.22
2023-01-30T03:48:30.927Z,21.21
2023-01-30T03:50:57.355Z,21.19
2023-01-30T03:53:24.027Z,21.18
2023-01-30T03:55:50.384Z,21.17
2023-01-30T03:58:16.729Z,21.15
2023-01-30T04:00:43.429Z,21.15
2023-01-30T04:03:10.020Z,21.13
2023-01-30T04:05:36.359Z,21.10
2023-01-30T04:08:02.691Z,21.08
2023-01-30T04:10:29.339Z,21.05
2023-01-30T04:12:55.885Z,21.05
2023-01-30T04:15:22.211Z,21.02
2023-01-30T04:17:48.546Z,21.06
2023-01-30T04:20:14.977Z,21.02
2023-01-30T04:22:41.355Z,21.01
2023-01-30T04:25:07.798Z,21.02
2023-01-30T04:27:34.124Z,21.03
2023-01-30T04:30:00.476Z,20.98
2023-01-30T04:32:27.169Z,20.99
2023-01-30T04:34:53.485Z,20.98
2023-01-30T04:37:19.798Z,20.96
2023-01-30T04:39:46.110Z,20.95
2023-01-30T04:42:12.450Z,20.92
2023-01-30T04:44:38.814Z,20.92
2023-01-30T04:47:05.135Z,20.90
2023-01-30T04:49:31.435Z,20.90
2023-01-30T04:51:57.778Z,20.90
2023-01-30T04:54:24.087Z,20.90
2023-01-30T04:56:50.400Z,20.83
2023-01-30T04:59:17.126Z,20.87
2023-01-30T05:01:43.507Z,20.86
2023-01-30T05:04:09.851Z,20.85
2023-01-30T05:06:36.716Z,20.84
2023-01-30T05:09:03.138Z,20.85
2023-01-30T05:11:29.512Z,20.83
2023-01-30T05:13:55.850Z,20.82
2023-01-30T05:16:22.525Z,20.80
2023-01-30T05:18:49.025Z,20.78
2023-01-30T05:21:16.436Z,20.77
2023-01-30T05:23:42.759Z,20.75
2023-01-30T05:26:09.183Z,20.73
2023-01-30T05:28:35.518Z,20.71
2023-01-30T05:31:05.594Z,20.72
2023-01-30T05:33:32.022Z,20.71
2023-01-30T05:35:59.088Z,20.74
2023-01-30T05:38:25.643Z,20.74
2023-01-30T05:41:01.605Z,20.73
2023-01-30T05:43:27.930Z,20.75
2023-01-30T05:45:54.743Z,20.75
2023-01-30T05:48:21.340Z,20.75
2023-01-30T05:50:47.920Z,20.75
2023-01-30T05:53:14.510Z,20.75
2023-01-30T05:55:40.836Z,20.73
2023-01-30T05:58:07.163Z,20.73
2023-01-30T06:00:33.498Z,20.73
2023-01-30T06:02:59.886Z,20.72
2023-01-30T06:05:26.239Z,20.71
2023-01-30T06:07:52.697Z,20.70
2023-01-30T06:10:19.242Z,20.69
2023-01-30T06:12:45.563Z,20.72
2023-01-30T06:15:11.879Z,20.73
2023-01-30T06:17:42.046Z,20.73
2023-01-30T06:20:08.719Z,20.73
2023-01-30T06:22:35.021Z,20.74
2023-01-30T06:25:01.527Z,20.73
2023-01-30T06:27:28.097Z,20.71
2023-01-30T06:29:54.401Z,20.70
2023-01-30T06:32:20.704Z,20.67
2023-01-30T06:34:47.067Z,20.66
2023-01-30T06:37:13.640Z,20.64
2023-01-30T06:39:39.951Z,20.62
2023-01-30T06:42:07.130Z,20.60
2023-01-30T06:44:33.518Z,20.64
2023-01-30T06:46:59.829Z,20.70
2023-01-30T06:49:26.175Z,20.63
2023-01-30T06:51:52.499Z,20.67
2023-01-30T06:54:18.824Z,20.66
2023-01-30T06:56:45.152Z,20.63
2023-01-30T06:59:11.486Z,20.63
2023-01-30T07:01:38.790Z,20.61
2023-01-30T07:04:05.204Z,20.61
2023-01-30T07:06:31.750Z,20.58
2023-01-30T07:08:58.849Z,20.60
2023-01-30T07:11:25.515Z,20.58
2023-01-30T07:13:51.917Z,20.58
2023-01-30T07:16:18.276Z,20.56
2023-01-30T07:18:44.762Z,20.56
2023-01-30T07:21:11.108Z,20.55
2023-01-30T07:23:37.478Z,20.55
2023-01-30T07:26:04.783Z,20.54
2023-01-30T07:28:31.120Z,20.53
2023-01-30T07:31:00.478Z,20.55
2023-01-30T07:33:26.813Z,20.57
2023-01-30T07:35:53.130Z,20.56
2023-01-30T07:38:19.451Z,20.56
2023-01-30T07:40:46.070Z,20.57
2023-01-30T07:43:12.815Z,20.56
2023-01-30T07:45:40.104Z,20.53
2023-01-30T07:48:06.849Z,20.51
2023-01-30T07:50:33.214Z,20.52
2023-01-30T07:52:59.530Z,20.56
2023-01-30T07:55:26.683Z,20.78
2023-01-30T07:57:53.022Z,20.98
2023-01-30T08:00:19.694Z,21.07
2023-01-30T08:02:46.183Z,21.24
2023-01-30T08:05:12.489Z,21.30
2023-01-30T08:07:38.787Z,21.36
2023-01-30T08:10:05.339Z,21.32
2023-01-30T08:12:31.801Z,21.35
2023-01-30T08:14:58.141Z,21.37
2023-01-30T08:17:24.445Z,21.36
2023-01-30T08:19:50.762Z,21.36
2023-01-30T08:22:17.180Z,21.41
2023-01-30T08:24:43.504Z,21.41
2023-01-30T08:27:09.851Z,21.43
2023-01-30T08:29:36.175Z,21.48
2023-01-30T08:32:02.496Z,21.52
2023-01-30T08:34:28.864Z,21.60
2023-01-30T08:36:55.247Z,21.67
2023-01-30T08:39:21.570Z,21.73
2023-01-30T08:41:47.911Z,21.78
2023-01-30T08:44:14.228Z,21.80
2023-01-30T08:46:40.817Z,21.82
2023-01-30T08:49:07.141Z,21.87
2023-01-30T08:51:33.551Z,21.84
2023-01-30T08:53:59.904Z,21.70
2023-01-30T08:56:26.220Z,21.57
2023-01-30T08:58:52.662Z,21.55
2023-01-30T09:01:19.044Z,21.59
2023-01-30T09:03:45.394Z,21.67
2023-01-30T09:06:11.879Z,21.75
2023-01-30T09:08:38.187Z,21.81
2023-01-30T09:11:04.804Z,21.75
2023-01-30T09:13:31.283Z,21.69
2023-01-30T09:15:58.021Z,21.63
2023-01-30T09:18:24.571Z,21.66
2023-01-30T09:20:52.718Z,21.69
2023-01-30T09:23:20.041Z,21.66
2023-01-30T09:25:46.751Z,21.62
2023-01-30T09:28:13.166Z,21.61
2023-01-30T09:30:39.587Z,21.58
2023-01-30T09:33:05.983Z,21.57
2023-01-30T09:35:32.353Z,21.58
2023-01-30T09:37:59.187Z,21.60
2023-01-30T09:40:28.867Z,21.65
2023-01-30T09:43:07.427Z,21.69
2023-01-30T09:45:36.681Z,21.72
2023-01-30T09:48:17.372Z,21.76
2023-01-30T09:51:02.543Z,21.76
2023-01-30T09:53:31.456Z,21.75
2023-01-30T09:55:58.035Z,21.73
2023-01-30T09:58:24.466Z,21.72
2023-01-30T10:00:51.829Z,21.71
2023-01-30T10:03:19.307Z,21.69
2023-01-30T10:06:15.076Z,21.63
2023-01-30T10:08:44.163Z,21.61
2023-01-30T10:11:13.858Z,21.59
2023-01-30T10:13:56.706Z,21.63
2023-01-30T10:16:35.109Z,21.74
2023-01-30T10:19:01.621Z,21.78
2023-01-30T10:21:40.354Z,21.79
2023-01-30T10:24:06.827Z,21.78
2023-01-30T10:26:33.333Z,21.75
2023-01-30T10:29:08.019Z,21.76
2023-01-30T10:31:36.430Z,21.74
2023-01-30T10:34:03.527Z,21.73
2023-01-30T10:36:33.664Z,21.72
2023-01-30T10:39:00.653Z,21.76
2023-01-30T10:41:28.634Z,21.78
2023-01-30T10:44:04.393Z,21.78
2023-01-30T10:46:50.192Z,21.78
2023-01-30T10:49:57.152Z,21.77
2023-01-30T10:52:42.252Z,21.75
2023-01-30T10:55:36.262Z,21.74
2023-01-30T10:58:03.274Z,21.70
2023-01-30T11:00:39.750Z,21.70
2023-01-30T11:03:18.270Z,21.72
2023-01-30T11:05:45.653Z,21.69
2023-01-30T11:08:13.795Z,21.68
2023-01-30T11:10:40.138Z,21.66
2023-01-30T11:13:14.515Z,21.65
2023-01-30T11:15:41.029Z,21.61
2023-01-30T11:18:33.496Z,21.73
2023-01-30T11:21:03.995Z,21.93
2023-01-30T11:23:34.967Z,22.15
2023-01-30T11:26:10.905Z,22.33
2023-01-30T11:28:41.578Z,22.44
2023-01-30T11:31:16.506Z,22.54
2023-01-30T11:33:43.151Z,22.58
2023-01-30T11:36:23.820Z,22.65
2023-01-30T11:38:54.631Z,22.84
2023-01-30T11:41:21.449Z,23.01
2023-01-30T11:43:48.399Z,23.13
2023-01-30T11:46:16.430Z,23.38
2023-01-30T11:49:09.156Z,23.53
2023-01-30T11:51:37.454Z,23.50
2023-01-30T11:54:04.717Z,23.49
2023-01-30T11:56:33.011Z,23.55
2023-01-30T11:58:59.825Z,23.55
2023-01-30T12:01:27.273Z,23.59
2023-01-30T12:03:53.840Z,23.61
2023-01-30T12:06:33.334Z,23.65
2023-01-30T12:08:59.740Z,23.68
2023-01-30T12:11:26.341Z,23.72
2023-01-30T12:13:53.027Z,23.70
2023-01-30T12:16:20.947Z,23.73
2023-01-30T12:19:01.798Z,23.77
2023-01-30T12:21:31.829Z,23.80
2023-01-30T12:24:12.496Z,23.82
2023-01-30T12:26:48.154Z,23.79
2023-01-30T12:29:23.187Z,23.78
2023-01-30T12:31:52.567Z,23.81
2023-01-30T12:34:18.893Z,23.81
2023-01-30T12:36:58.372Z,23.81
2023-01-30T12:39:43.714Z,23.83
2023-01-30T12:42:28.955Z,23.85
2023-01-30T12:44:55.201Z,23.89
2023-01-30T12:47:28.642Z,23.86
2023-01-30T12:50:14.255Z,23.88
2023-01-30T12:52:43.569Z,23.70
2023-01-30T12:55:30.147Z,23.66
2023-01-30T12:58:03.823Z,23.62
2023-01-30T13:00:48.498Z,23.65
2023-01-30T13:03:33.676Z,23.66
2023-01-30T13:06:18.826Z,23.67
2023-01-30T13:09:03.150Z,23.71
2023-01-30T13:11:50.297Z,23.73
2023-01-30T13:14:31.130Z,23.72
2023-01-30T13:17:00.827Z,23.76
2023-01-30T13:19:40.842Z,23.80
2023-01-30T13:22:10.688Z,23.83
2023-01-30T13:24:39.995Z,23.89
2023-01-30T13:27:09.375Z,23.97
2023-01-30T13:29:36.372Z,23.98
2023-01-30T13:32:03.745Z,23.94
2023-01-30T13:34:31.592Z,24.02
2023-01-30T13:37:03.830Z,23.94
2023-01-30T13:39:59.711Z,23.78
2023-01-30T13:42:35.049Z,23.88
2023-01-30T13:45:01.490Z,23.86
2023-01-30T13:47:39.653Z,23.85
2023-01-30T13:50:19.939Z,23.82
2023-01-30T13:53:06.351Z,23.83
2023-01-30T13:55:51.336Z,23.80
2023-01-30T13:58:25.078Z,23.76
2023-01-30T14:00:51.865Z,23.69
2023-01-30T14:03:25.272Z,23.56
2023-01-30T14:05:51.805Z,23.50
2023-01-30T14:08:22.019Z,23.50
2023-01-30T14:10:48.650Z,23.47
2023-01-30T14:13:15.103Z,23.42
2023-01-30T14:15:42.649Z,23.41
2023-01-30T14:18:19.281Z,23.46
2023-01-30T14:20:46.496Z,23.40
2023-01-30T14:23:22.669Z,23.38
2023-01-30T14:25:52.780Z,23.42
2023-01-30T14:28:19.048Z,23.38
2023-01-30T14:30:45.360Z,23.33
2023-01-30T14:33:20.645Z,23.34
2023-01-30T14:36:07.481Z,23.32
2023-01-30T14:38:34.335Z,23.26
2023-01-30T14:41:00.602Z,23.27
2023-01-30T14:43:26.853Z,23.21
2023-01-30T14:45:53.231Z,23.20
2023-01-30T14:48:38.376Z,23.14
2023-01-30T14:51:16.968Z,23.21
2023-01-30T14:56:09.538Z,23.45
2023-01-30T14:58:35.871Z,23.45
2023-01-30T15:01:02.284Z,23.37
2023-01-30T15:03:28.655Z,23.23
2023-01-30T15:05:56.710Z,23.41
2023-01-30T15:08:23.466Z,23.47
2023-01-30T15:10:54.468Z,23.41
2023-01-30T15:13:37.862Z,23.45
2023-01-30T15:16:07.016Z,23.51
2023-01-30T15:18:46.551Z,23.61
2023-01-30T15:21:37.095Z,23.65
2023-01-30T15:24:21.973Z,23.69
2023-01-30T15:26:48.308Z,23.71
2023-01-30T15:29:33.522Z,23.75
2023-01-30T15:32:02.889Z,23.75
2023-01-30T15:34:32.407Z,23.78
2023-01-30T15:36:58.752Z,23.79
2023-01-30T15:39:25.599Z,23.81
2023-01-30T15:41:57.207Z,23.84
2023-01-30T15:44:32.646Z,23.88
2023-01-30T15:47:17.789Z,23.94
2023-01-30T15:49:50.677Z,23.97
2023-01-30T15:52:17.946Z,24.01
2023-01-30T15:54:49.889Z,24.03
2023-01-30T15:57:17.926Z,24.05
2023-01-30T15:59:44.418Z,24.06
2023-01-30T16:02:14.497Z,24.07
2023-01-30T16:04:40.976Z,24.08
2023-01-30T16:07:25.778Z,24.10
2023-01-30T16:10:07.213Z,24.05
2023-01-30T16:12:33.839Z,24.07
2023-01-30T16:15:12.335Z,24.11
2023-01-30T16:17:45.287Z,24.12
2023-01-30T16:20:12.601Z,24.13
2023-01-30T16:22:41.327Z,24.11
2023-01-30T16:25:11.172Z,24.28
2023-01-30T16:27:37.505Z,24.31
2023-01-30T16:32:52.194Z,24.32
2023-01-30T16:35:27.267Z,24.33
2023-01-30T16:37:55.127Z,24.34
2023-01-30T16:40:24.909Z,24.42
2023-01-30T16:43:01.271Z,24.41
2023-01-30T16:45:33.528Z,24.37
2023-01-30T16:48:11.952Z,24.36
2023-01-30T16:50:38.859Z,24.37
2023-01-30T16:53:05.336Z,24.38
2023-01-30T16:55:31.774Z,24.43
2023-01-30T16:57:58.783Z,24.45
2023-01-30T17:00:25.218Z,24.57
2023-01-30T17:02:53.162Z,24.53
2023-01-30T17:05:23.296Z,24.59
2023-01-30T17:07:49.860Z,24.63
2023-01-30T17:10:28.455Z,24.59
2023-01-30T17:12:57.990Z,24.55
2023-01-30T17:15:42.574Z,24.57
2023-01-30T17:18:10.025Z,24.55
2023-01-30T17:20:37.802Z,24.55
2023-01-30T17:23:06.191Z,24.52
2023-01-30T17:25:39.751Z,24.50
2023-01-30T17:28:06.702Z,24.51
2023-01-30T17:30:33.030Z,24.61
2023-01-30T17:32:59.351Z,24.75
2023-01-30T17:35:25.659Z,24.86
2023-01-30T17:38:04.747Z,24.89
2023-01-30T17:40:33.281Z,24.89
2023-01-30T17:42:59.666Z,24.89
2023-01-30T17:45:26.043Z,24.95
2023-01-30T17:47:52.507Z,24.88
2023-01-30T17:50:19.194Z,24.88
2023-01-30T17:52:45.931Z,24.89
2023-01-30T17:55:13.009Z,24.84
2023-01-30T17:57:39.505Z,24.78
2023-01-30T18:00:06.023Z,24.74
2023-01-30T18:02:33.384Z,24.74
2023-01-30T18:04:59.732Z,24.72
2023-01-30T18:07:26.083Z,24.72
2023-01-30T18:09:52.396Z,24.76
2023-01-30T18:12:18.826Z,24.74
2023-01-30T18:14:45.146Z,24.73
2023-01-30T18:17:12.441Z,24.73
2023-01-30T18:19:38.766Z,24.71
2023-01-30T18:22:05.096Z,24.70
2023-01-30T18:24:31.402Z,24.61
2023-01-30T18:26:58.771Z,24.61
2023-01-30T18:29:26.536Z,24.53
2023-01-30T18:31:53.009Z,24.50
2023-01-30T18:34:19.374Z,24.50
2023-01-30T18:36:45.680Z,24.53
2023-01-30T18:39:12.334Z,24.52
2023-01-30T18:41:38.650Z,24.52
2023-01-30T18:44:12.728Z,24.47
2023-01-30T18:46:39.076Z,24.48
2023-01-30T18:49:06.329Z,24.53
2023-01-30T18:51:34.077Z,24.52
2023-01-30T18:54:00.570Z,24.38
2023-01-30T18:56:28.016Z,24.37
2023-01-30T18:58:54.549Z,24.38
2023-01-30T19:01:21.799Z,24.31
2023-01-30T19:03:48.146Z,24.35
2023-01-30T19:06:15.231Z,24.36
2023-01-30T19:08:41.554Z,24.33
2023-01-30T19:11:27.656Z,24.30
2023-01-30T19:13:54.067Z,24.27
2023-01-30T19:16:20.838Z,24.26
2023-01-30T19:18:47.195Z,24.23
2023-01-30T19:21:13.748Z,24.26
2023-01-30T19:23:40.094Z,24.22
2023-01-30T19:26:06.467Z,24.16
2023-01-30T19:28:32.790Z,24.13
2023-01-30T19:30:59.192Z,24.14
2023-01-30T19:33:25.560Z,24.10
2023-01-30T19:35:51.877Z,24.17
2023-01-30T19:38:18.242Z,24.12
2023-01-30T19:40:44.877Z,24.09
2023-01-30T19:43:14.197Z,24.11
2023-01-30T19:45:40.789Z,24.16
2023-01-30T19:48:07.162Z,24.31
2023-01-30T19:50:33.512Z,24.30
2023-01-30T19:52:59.877Z,24.31
2023-01-30T19:55:26.529Z,24.51
2023-01-30T19:57:52.914Z,24.81
2023-01-30T20:00:19.632Z,25.08
2023-01-30T20:02:46.161Z,25.27
2023-01-30T20:05:12.554Z,25.30
2023-01-30T20:07:38.950Z,25.37
2023-01-30T20:10:05.521Z,25.41
2023-01-30T20:12:35.682Z,25.45
2023-01-30T20:15:03.327Z,25.47
2023-01-30T20:17:31.361Z,25.54
2023-01-30T20:19:57.711Z,25.60
2023-01-30T20:22:24.031Z,25.55
2023-01-30T20:24:50.352Z,25.59
2023-01-30T20:27:16.659Z,25.51
2023-01-30T20:29:42.982Z,25.69
2023-01-30T20:32:09.290Z,25.70
2023-01-30T20:34:35.618Z,25.70
2023-01-30T20:37:01.939Z,25.71
2023-01-30T20:39:28.285Z,25.75
2023-01-30T20:41:54.616Z,25.82
2023-01-30T20:44:21.057Z,25.79
2023-01-30T20:46:48.977Z,25.80
2023-01-30T20:49:21.638Z,25.87
2023-01-30T20:51:50.143Z,25.84
2023-01-30T20:54:16.571Z,25.84
2023-01-30T20:56:43.831Z,25.84
2023-01-30T20:59:10.841Z,25.82
2023-01-30T21:01:37.434Z,25.80
2023-01-30T21:04:04.635Z,25.78
2023-01-30T21:06:41.821Z,25.86
2023-01-30T21:09:12.612Z,25.82
2023-01-30T21:11:39.467Z,25.81
2023-01-30T21:14:05.914Z,25.80
2023-01-30T21:16:32.468Z,25.81
2023-01-30T21:19:02.389Z,25.80
2023-01-30T21:21:31.380Z,25.63
2023-01-30T21:23:59.534Z,25.55
2023-01-30T21:26:27.185Z,25.48
2023-01-30T21:28:55.183Z,25.44
2023-01-30T21:31:22.310Z,25.24
2023-01-30T21:33:49.568Z,25.12
2023-01-30T21:36:17.135Z,25.13
2023-01-30T21:39:02.194Z,24.72
2023-01-30T21:41:48.017Z,24.50
2023-01-30T21:44:14.364Z,24.37
2023-01-30T21:46:41.127Z,24.27
2023-01-30T21:49:07.593Z,24.23
2023-01-30T21:51:33.917Z,24.21
2023-01-30T21:54:00.250Z,24.17
2023-01-30T21:56:26.560Z,24.11
2023-01-30T21:58:52.955Z,24.11
2023-01-30T22:01:19.333Z,24.10
2023-01-30T22:03:45.815Z,24.10
2023-01-30T22:06:12.867Z,24.08
2023-01-30T22:08:40.002Z,24.05
2023-01-30T22:11:09.874Z,24.03
2023-01-30T22:13:36.527Z,24.04
2023-01-30T22:16:03.837Z,24.02
2023-01-30T22:18:31.243Z,24.01
2023-01-30T22:21:16.278Z,23.96
2023-01-30T22:23:46.243Z,23.94
2023-01-30T22:26:12.966Z,23.90
2023-01-30T22:28:39.724Z,23.85
2023-01-30T22:31:09.975Z,23.83
2023-01-30T22:33:36.611Z,23.78
2023-01-30T22:36:03.421Z,23.77
2023-01-30T22:38:29.746Z,23.73
2023-01-30T22:41:00.893Z,23.69
2023-01-30T22:43:28.356Z,23.66
2023-01-30T22:46:00.959Z,23.65
2023-01-30T22:48:27.950Z,23.59
2023-01-30T22:51:23.375Z,23.57
2023-01-30T22:53:56.461Z,23.55
2023-01-30T22:56:23.555Z,23.51
2023-01-30T22:58:49.898Z,23.49
2023-01-30T23:01:20.007Z,23.47
2023-01-30T23:03:47.520Z,23.45
2023-01-30T23:06:15.119Z,23.44
2023-01-30T23:08:42.296Z,23.42
2023-01-30T23:11:18.319Z,23.39
2023-01-30T23:13:45.164Z,23.37
2023-01-30T23:16:11.533Z,23.34
2023-01-30T23:18:56.246Z,23.32
2023-01-30T23:21:23.339Z,23.32
2023-01-30T23:23:51.100Z,23.29
2023-01-30T23:26:17.441Z,23.26
2023-01-30T23:28:43.798Z,23.24
2023-01-30T23:31:14.492Z,23.21
2023-01-30T23:33:40.865Z,23.19
2023-01-30T23:36:08.095Z,23.14
2023-01-30T23:38:34.419Z,23.16
2023-01-30T23:41:04.355Z,23.14
2023-01-30T23:43:30.905Z,23.10
2023-01-30T23:45:59.071Z,23.08
2023-01-30T23:48:25.444Z,23.06
2023-01-30T23:50:51.759Z,23.05
2023-01-30T23:53:18.071Z,23.01
2023-01-30T23:55:51.814Z,22.99
2023-01-30T23:58:18.131Z,22.97
